createdAt,value
2022-09-16T00:01:50.833Z,2.00
2022-09-16T00:04:17.883Z,1.60
2022-09-16T00:06:44.238Z,1.52
2022-09-16T00:09:10.749Z,1.80
2022-09-16T00:11:37.196Z,1.80
2022-09-16T00:14:04.050Z,1.40
2022-09-16T00:16:30.537Z,1.88
2022-09-16T00:18:59.863Z,1.60
2022-09-16T00:21:28.616Z,1.55
2022-09-16T00:23:58.053Z,2.20
2022-09-16T00:26:25.963Z,2.13
2022-09-16T00:28:52.475Z,1.95
2022-09-16T00:31:18.891Z,1.95
2022-09-16T00:33:45.258Z,1.75
2022-09-16T00:36:17.270Z,2.47
2022-09-16T00:38:44.437Z,1.88
2022-09-16T00:41:19.857Z,1.70
2022-09-16T00:43:59.340Z,1.70
2022-09-16T00:46:46.301Z,2.30
2022-09-16T00:49:18.658Z,1.55
2022-09-16T00:51:49.759Z,1.58
2022-09-16T00:54:17.609Z,1.70
2022-09-16T00:56:47.115Z,1.20
2022-09-16T00:59:24.543Z,1.60
2022-09-16T01:01:52.181Z,1.30
2022-09-16T01:04:28.235Z,1.38
2022-09-16T01:06:54.833Z,1.52
2022-09-16T01:09:23.019Z,1.45
2022-09-16T01:11:49.514Z,1.42
2022-09-16T01:14:35.531Z,1.40
2022-09-16T01:17:23.207Z,1.30
2022-09-16T01:20:08.580Z,1.67
2022-09-16T01:22:54.316Z,1.30
2022-09-16T01:25:50.797Z,1.25
2022-09-16T01:28:44.672Z,1.40
2022-09-16T01:31:32.523Z,1.30
2022-09-16T01:34:24.321Z,1.30
2022-09-16T01:37:15.689Z,1.10
2022-09-16T01:40:16.434Z,1.30
2022-09-16T01:43:04.054Z,1.48
2022-09-16T01:45:39.846Z,1.38
2022-09-16T01:48:32.503Z,1.42
2022-09-16T01:51:21.078Z,1.80
2022-09-16T01:54:03.248Z,1.60
2022-09-16T01:56:42.812Z,2.75
2022-09-16T01:59:13.725Z,1.90
2022-09-16T02:01:44.314Z,2.00
2022-09-16T02:04:23.737Z,1.90
2022-09-16T02:06:53.912Z,1.95
2022-09-16T02:09:25.423Z,2.03
2022-09-16T02:11:54.567Z,2.20
2022-09-16T02:14:25.656Z,2.10
2022-09-16T02:17:05.520Z,2.50
2022-09-16T02:19:39.952Z,2.13
2022-09-16T02:22:11.522Z,2.65
2022-09-16T02:24:40.536Z,2.60
2022-09-16T02:27:12.791Z,2.17
2022-09-16T02:29:49.153Z,2.45
2022-09-16T02:32:15.648Z,2.22
2022-09-16T02:34:49.519Z,2.53
2022-09-16T02:37:24.207Z,2.63
2022-09-16T02:39:57.695Z,2.42
2022-09-16T02:42:24.264Z,2.65
2022-09-16T02:44:50.861Z,2.90
2022-09-16T02:47:38.915Z,2.20
2022-09-16T02:50:14.401Z,2.40
2022-09-16T02:52:56.658Z,2.80
2022-09-16T02:55:50.355Z,2.33
2022-09-16T02:58:16.941Z,2.63
2022-09-16T03:00:46.722Z,2.58
2022-09-16T03:03:13.964Z,2.80
2022-09-16T03:06:14.968Z,2.85
2022-09-16T03:08:44.430Z,3.15
2022-09-16T03:11:14.031Z,2.72
2022-09-16T03:13:54.961Z,3.42
2022-09-16T03:16:45.387Z,3.08
2022-09-16T03:19:51.101Z,3.03
2022-09-16T03:22:23.310Z,3.65
2022-09-16T03:25:03.342Z,3.42
2022-09-16T03:27:40.229Z,3.33
2022-09-16T03:30:09.917Z,3.22
2022-09-16T03:32:44.995Z,3.22
2022-09-16T03:35:26.529Z,3.47
2022-09-16T03:37:55.803Z,4.03
2022-09-16T03:40:23.575Z,3.88
2022-09-16T03:42:50.630Z,3.75
2022-09-16T03:45:21.793Z,5.20
2022-09-16T03:47:50.964Z,5.10
2022-09-16T03:50:18.989Z,3.85
2022-09-16T03:52:45.673Z,4.53
2022-09-16T03:55:12.516Z,5.00
2022-09-16T03:57:39.088Z,5.10
2022-09-16T04:00:07.928Z,4.65
2022-09-16T04:02:34.361Z,4.80
2022-09-16T04:05:00.978Z,5.25
2022-09-16T04:07:27.353Z,4.82
2022-09-16T04:09:53.755Z,4.65
2022-09-16T04:12:20.244Z,4.53
2022-09-16T04:14:46.594Z,5.22
2022-09-16T04:17:12.938Z,5.55
2022-09-16T04:19:39.284Z,5.03
2022-09-16T04:22:05.670Z,5.38
2022-09-16T04:24:32.628Z,5.82
2022-09-16T04:26:59.044Z,4.78
2022-09-16T04:29:25.467Z,5.40
2022-09-16T04:31:52.090Z,4.65
2022-09-16T04:34:18.510Z,5.57
2022-09-16T04:36:45.001Z,4.90
2022-09-16T04:39:12.261Z,4.70
2022-09-16T04:41:38.991Z,5.18
2022-09-16T04:44:05.707Z,5.72
2022-09-16T04:46:32.760Z,4.85
2022-09-16T04:49:00.006Z,4.63
2022-09-16T04:51:27.785Z,4.53
2022-09-16T04:53:57.669Z,4.63
2022-09-16T04:56:26.893Z,4.50
2022-09-16T04:58:55.792Z,4.82
2022-09-16T05:01:26.293Z,4.80
2022-09-16T05:03:55.381Z,4.30
2022-09-16T05:06:30.284Z,4.65
2022-09-16T05:08:57.041Z,3.88
2022-09-16T05:11:31.825Z,4.55
2022-09-16T05:13:59.294Z,4.00
2022-09-16T05:16:25.968Z,4.53
2022-09-16T05:18:55.945Z,4.82
2022-09-16T05:21:24.029Z,4.10
2022-09-16T05:23:51.159Z,4.40
2022-09-16T05:26:23.315Z,4.43
2022-09-16T05:28:52.967Z,4.32
2022-09-16T05:31:20.918Z,4.07
2022-09-16T05:33:54.807Z,4.18
2022-09-16T05:36:21.726Z,4.15
2022-09-16T05:39:11.158Z,4.90
2022-09-16T05:41:35.823Z,3.97
2022-09-16T05:44:02.565Z,4.28
2022-09-16T05:46:29.232Z,4.15
2022-09-16T05:48:56.586Z,4.03
2022-09-16T05:51:24.090Z,4.03
2022-09-16T05:53:51.913Z,4.53
2022-09-16T05:56:21.920Z,4.50
2022-09-16T05:58:48.757Z,4.68
2022-09-16T06:01:19.020Z,4.65
2022-09-16T06:03:47.348Z,4.35
2022-09-16T06:06:25.544Z,4.53
2022-09-16T06:08:55.658Z,4.32
2022-09-16T06:11:23.302Z,4.30
2022-09-16T06:13:57.680Z,4.22
2022-09-16T06:16:28.193Z,4.45
2022-09-16T06:18:55.962Z,4.35
2022-09-16T06:21:23.349Z,4.35
2022-09-16T06:23:50.387Z,4.32
2022-09-16T06:26:19.401Z,3.88
2022-09-16T06:28:46.883Z,3.80
2022-09-16T06:31:15.863Z,3.80
2022-09-16T06:33:42.886Z,3.80
2022-09-16T06:36:16.443Z,4.05
2022-09-16T06:38:43.761Z,3.70
2022-09-16T06:41:12.048Z,3.72
2022-09-16T06:43:39.049Z,3.42
2022-09-16T06:46:10.522Z,3.63
2022-09-16T06:48:36.933Z,3.50
2022-09-16T06:51:06.847Z,3.33
2022-09-16T06:53:33.761Z,3.08
2022-09-16T06:56:10.994Z,2.88
2022-09-16T06:58:39.783Z,3.50
2022-09-16T07:01:07.687Z,2.55
2022-09-16T07:03:38.155Z,2.40
2022-09-16T07:06:05.001Z,2.58
2022-09-16T07:08:33.126Z,2.70
2022-09-16T07:11:01.937Z,3.20
2022-09-16T07:13:28.638Z,2.67
2022-09-16T07:16:12.306Z,2.70
2022-09-16T07:18:39.908Z,3.00
2022-09-16T07:21:20.239Z,2.85
2022-09-16T07:23:47.434Z,2.97
2022-09-16T07:26:19.894Z,2.97
2022-09-16T07:28:48.108Z,2.90
2022-09-16T07:31:17.957Z,2.75
2022-09-16T07:33:48.034Z,2.78
2022-09-16T07:36:17.512Z,2.58
2022-09-16T07:38:44.064Z,3.88
2022-09-16T07:41:14.734Z,2.70
2022-09-16T07:43:42.352Z,2.45
2022-09-16T07:46:11.187Z,2.28
2022-09-16T07:48:38.559Z,13.57
2022-09-16T07:51:08.117Z,3.15
2022-09-16T07:53:35.487Z,2.33
2022-09-16T07:56:08.777Z,2.40
2022-09-16T07:58:35.817Z,2.22
2022-09-16T08:01:04.743Z,2.35
2022-09-16T08:03:36.196Z,2.70
2022-09-16T08:06:08.497Z,2.53
2022-09-16T08:08:35.045Z,2.10
2022-09-16T08:11:02.352Z,2.92
2022-09-16T08:13:31.218Z,2.45
2022-09-16T08:16:03.478Z,2.45
2022-09-16T08:18:30.491Z,1.90
2022-09-16T08:20:56.978Z,2.88
2022-09-16T08:23:23.542Z,2.03
2022-09-16T08:26:00.129Z,1.90
2022-09-16T08:28:35.795Z,2.17
2022-09-16T08:31:12.311Z,1.80
2022-09-16T08:33:39.991Z,2.45
2022-09-16T08:36:11.766Z,1.60
2022-09-16T08:38:38.192Z,3.65
2022-09-16T08:41:32.520Z,2.08
2022-09-16T08:44:18.476Z,1.63
2022-09-16T08:46:47.861Z,1.60
2022-09-16T08:49:35.161Z,1.90
2022-09-16T08:52:15.896Z,2.90
2022-09-16T08:54:45.435Z,2.75
2022-09-16T08:57:16.144Z,3.38
2022-09-16T08:59:48.390Z,1.98
2022-09-16T09:02:53.721Z,2.03
2022-09-16T09:05:40.383Z,1.67
2022-09-16T09:08:33.902Z,1.80
2022-09-16T09:11:13.369Z,1.98
2022-09-16T09:14:21.970Z,2.05
2022-09-16T09:17:07.313Z,2.25
2022-09-16T09:20:01.170Z,2.08
2022-09-16T09:23:06.769Z,2.22
2022-09-16T09:25:58.212Z,1.75
2022-09-16T09:29:07.702Z,2.00
2022-09-16T09:31:37.913Z,1.48
2022-09-16T09:34:29.197Z,1.50
2022-09-16T09:37:24.374Z,1.88
2022-09-16T09:40:27.277Z,2.40
2022-09-16T09:43:12.714Z,1.60
2022-09-16T09:45:58.127Z,1.67
2022-09-16T09:48:37.387Z,1.90
2022-09-16T09:51:13.756Z,1.40
2022-09-16T09:53:47.014Z,1.10
2022-09-16T09:56:37.219Z,1.88
2022-09-16T09:59:26.245Z,2.20
2022-09-16T10:02:01.952Z,1.30
2022-09-16T10:04:37.721Z,1.13
2022-09-16T10:07:05.260Z,1.20
2022-09-16T10:09:33.576Z,1.90
2022-09-16T10:12:01.087Z,1.20
2022-09-16T10:14:27.398Z,5.78
2022-09-16T10:16:55.145Z,2.10
2022-09-16T10:19:27.556Z,2.25
2022-09-16T10:22:19.203Z,1.70
2022-09-16T10:24:57.148Z,1.08
2022-09-16T10:27:27.033Z,1.13
2022-09-16T10:30:18.901Z,0.90
2022-09-16T10:32:54.829Z,1.10
2022-09-16T10:35:27.169Z,1.25
2022-09-16T10:37:58.522Z,0.98
2022-09-16T10:40:25.740Z,0.80
2022-09-16T10:42:54.415Z,0.70
2022-09-16T10:45:29.839Z,0.75
2022-09-16T10:48:03.503Z,1.23
2022-09-16T10:50:33.393Z,1.50
2022-09-16T10:52:59.811Z,1.02
2022-09-16T10:55:30.043Z,0.95
2022-09-16T10:58:18.679Z,0.57
2022-09-16T11:01:13.888Z,0.70
2022-09-16T11:03:59.139Z,0.73
2022-09-16T11:06:47.332Z,0.98
2022-09-16T11:09:21.861Z,0.70
2022-09-16T11:11:50.995Z,1.23
2022-09-16T11:14:46.503Z,0.60
2022-09-16T11:17:55.165Z,0.85
2022-09-16T11:20:48.961Z,1.70
2022-09-16T11:23:40.699Z,1.15
2022-09-16T11:26:31.181Z,1.10
2022-09-16T11:29:03.744Z,0.80
2022-09-16T11:31:40.554Z,1.05
2022-09-16T11:34:14.793Z,1.20
2022-09-16T11:37:02.838Z,0.93
2022-09-16T11:39:38.685Z,0.77
2022-09-16T11:42:11.678Z,1.20
2022-09-16T11:44:50.567Z,1.05
2022-09-16T11:47:40.657Z,0.93
2022-09-16T11:50:25.589Z,0.75
2022-09-16T11:53:15.898Z,1.10
2022-09-16T11:55:49.576Z,0.80
2022-09-16T11:58:30.363Z,1.40
2022-09-16T12:01:01.356Z,1.40
2022-09-16T12:03:54.803Z,1.02
2022-09-16T12:06:25.462Z,1.05
2022-09-16T12:09:07.767Z,2.55
2022-09-16T12:11:45.827Z,1.60
2022-09-16T12:14:23.326Z,1.15
2022-09-16T12:16:59.341Z,2.47
2022-09-16T12:19:35.237Z,1.23
2022-09-16T12:22:10.513Z,1.08
2022-09-16T12:24:45.615Z,0.98
2022-09-16T12:27:31.019Z,2.28
2022-09-16T12:30:03.371Z,1.35
2022-09-16T12:32:43.714Z,1.02
2022-09-16T12:35:17.492Z,0.60
2022-09-16T12:37:52.811Z,0.70
2022-09-16T12:40:27.989Z,0.80
2022-09-16T12:43:32.050Z,0.82
2022-09-16T12:46:24.268Z,0.65
2022-09-16T12:49:15.562Z,0.60
2022-09-16T12:52:07.869Z,0.90
2022-09-16T12:55:09.060Z,1.10
2022-09-16T12:58:15.690Z,0.70
2022-09-16T13:01:00.009Z,1.10
2022-09-16T13:03:29.555Z,1.27
2022-09-16T13:05:58.808Z,1.23
2022-09-16T13:08:29.024Z,0.68
2022-09-16T13:13:56.961Z,1.00
2022-09-16T13:16:35.525Z,0.90
2022-09-16T13:19:07.528Z,1.00
2022-09-16T13:21:47.372Z,1.00
2022-09-16T13:24:55.317Z,1.80
2022-09-16T13:27:30.026Z,1.20
2022-09-16T13:30:08.342Z,1.00
2022-09-16T13:32:52.481Z,1.00
2022-09-16T13:35:18.783Z,0.93
2022-09-16T13:37:46.636Z,0.75
2022-09-16T13:40:25.620Z,0.70
2022-09-16T13:43:09.416Z,1.00
2022-09-16T13:45:45.055Z,0.90
2022-09-16T13:48:19.555Z,0.93
2022-09-16T13:50:57.286Z,1.02
2022-09-16T13:53:37.441Z,1.10
2022-09-16T13:56:42.671Z,1.17
2022-09-16T14:02:54.079Z,0.90
2022-09-16T14:05:50.556Z,0.70
2022-09-16T14:08:32.249Z,0.90
2022-09-16T14:11:11.288Z,1.25
2022-09-16T14:13:46.205Z,1.10
2022-09-16T14:16:18.382Z,1.05
2022-09-16T14:18:55.624Z,0.80
2022-09-16T14:21:24.434Z,1.00
2022-09-16T14:23:51.431Z,1.30
2022-09-16T14:26:24.498Z,1.30
2022-09-16T14:29:02.711Z,0.70
2022-09-16T14:31:32.779Z,1.17
2022-09-16T14:34:04.603Z,1.13
2022-09-16T14:36:35.595Z,1.40
2022-09-16T14:39:04.502Z,1.02
2022-09-16T14:41:37.197Z,0.80
2022-09-16T14:44:20.586Z,1.07
2022-09-16T14:46:56.784Z,0.80
2022-09-16T14:49:31.939Z,1.00
2022-09-16T14:52:03.918Z,1.17
2022-09-16T14:54:31.083Z,0.90
2022-09-16T14:57:02.850Z,0.82
2022-09-16T14:59:41.905Z,1.40
2022-09-16T15:02:14.317Z,1.15
2022-09-16T15:04:45.065Z,1.27
2022-09-16T15:07:17.225Z,1.15
2022-09-16T15:10:03.852Z,1.58
2022-09-16T15:12:44.385Z,1.17
2022-09-16T15:15:24.597Z,1.00
2022-09-16T15:18:01.673Z,1.40
2022-09-16T15:20:34.579Z,1.08
2022-09-16T15:23:04.781Z,1.00
2022-09-16T15:25:34.463Z,1.80
2022-09-16T15:28:06.249Z,0.80
2022-09-16T15:30:32.663Z,1.55
2022-09-16T15:32:59.100Z,1.08
2022-09-16T15:35:27.283Z,1.55
2022-09-16T15:37:54.662Z,0.80
2022-09-16T15:40:27.189Z,1.63
2022-09-16T15:43:15.954Z,1.30
2022-09-16T15:45:44.463Z,1.08
2022-09-16T15:48:20.213Z,1.90
2022-09-16T15:50:54.328Z,0.77
2022-09-16T15:53:29.793Z,1.00
2022-09-16T15:56:07.152Z,1.00
2022-09-16T15:58:44.656Z,1.10
2022-09-16T16:01:37.354Z,0.60
2022-09-16T16:04:11.028Z,0.57
2022-09-16T16:07:04.910Z,0.73
2022-09-16T16:09:36.005Z,0.57
2022-09-16T16:12:10.826Z,0.80
2022-09-16T16:14:38.781Z,0.57
2022-09-16T16:17:13.199Z,1.50
2022-09-16T16:19:42.220Z,0.73
2022-09-16T16:22:09.559Z,0.90
2022-09-16T16:24:36.987Z,0.82
2022-09-16T16:27:04.504Z,0.77
2022-09-16T16:29:31.286Z,0.75
2022-09-16T16:31:59.584Z,1.20
2022-09-16T16:34:25.999Z,0.82
2022-09-16T16:36:52.416Z,1.00
2022-09-16T16:39:18.800Z,0.70
2022-09-16T16:41:45.230Z,0.90
2022-09-16T16:44:11.618Z,0.98
2022-09-16T16:46:38.012Z,0.88
2022-09-16T16:49:04.979Z,0.57
2022-09-16T16:51:31.380Z,0.88
2022-09-16T16:53:57.935Z,0.73
2022-09-16T16:56:24.505Z,0.75
2022-09-16T16:58:50.969Z,1.13
2022-09-16T17:01:20.711Z,0.98
2022-09-16T17:03:49.833Z,1.13
2022-09-16T17:06:17.544Z,0.90
2022-09-16T17:08:43.957Z,0.60
2022-09-16T17:11:13.482Z,0.80
2022-09-16T17:13:42.807Z,0.82
2022-09-16T17:16:11.064Z,0.88
2022-09-16T17:18:39.137Z,1.35
2022-09-16T17:21:11.479Z,1.15
2022-09-16T17:23:38.538Z,1.67
2022-09-16T17:26:06.385Z,0.80
2022-09-16T17:28:32.849Z,1.00
2022-09-16T17:30:59.251Z,2.80
2022-09-16T17:33:26.227Z,2.92
2022-09-16T17:36:06.894Z,0.95
2022-09-16T17:38:33.811Z,0.70
2022-09-16T17:41:05.999Z,1.08
2022-09-16T17:43:33.556Z,0.90
2022-09-16T17:46:01.288Z,0.70
2022-09-16T17:48:28.257Z,0.90
2022-09-16T17:50:54.986Z,1.27
2022-09-16T17:53:22.450Z,1.30
2022-09-16T17:55:49.136Z,1.33
2022-09-16T17:58:15.767Z,1.13
2022-09-16T18:00:43.456Z,1.10
2022-09-16T18:03:11.936Z,1.08
2022-09-16T18:05:39.620Z,0.90
2022-09-16T18:08:06.385Z,1.10
2022-09-16T18:10:32.879Z,1.25
2022-09-16T18:12:59.295Z,1.00
2022-09-16T18:15:25.778Z,1.08
2022-09-16T18:17:53.874Z,1.73
2022-09-16T18:20:20.559Z,1.38
2022-09-16T18:22:48.499Z,1.63
2022-09-16T18:25:14.928Z,1.63
2022-09-16T18:27:44.157Z,1.70
2022-09-16T18:30:11.634Z,1.67
2022-09-16T18:32:38.058Z,2.33
2022-09-16T18:35:04.989Z,1.80
2022-09-16T18:37:31.428Z,1.23
2022-09-16T18:39:57.898Z,0.90
2022-09-16T18:42:24.367Z,2.03
2022-09-16T18:44:51.986Z,1.33
2022-09-16T18:47:18.332Z,1.30
2022-09-16T18:49:44.727Z,1.55
2022-09-16T18:52:11.369Z,1.45
2022-09-16T18:54:37.760Z,0.90
2022-09-16T18:57:04.176Z,0.90
2022-09-16T18:59:34.029Z,1.00
2022-09-16T19:02:03.428Z,1.00
2022-09-16T19:04:32.663Z,0.77
2022-09-16T19:07:05.977Z,1.10
2022-09-16T19:09:33.181Z,0.82
2022-09-16T19:12:00.963Z,1.17
2022-09-16T19:14:27.439Z,1.55
2022-09-16T19:16:54.447Z,1.20
2022-09-16T19:19:21.408Z,0.82
2022-09-16T19:21:48.061Z,1.60
2022-09-16T19:24:18.174Z,0.90
2022-09-16T19:26:45.692Z,1.30
2022-09-16T19:29:13.816Z,1.17
2022-09-16T19:31:42.163Z,0.95
2022-09-16T19:34:09.901Z,1.30
2022-09-16T19:36:37.039Z,1.25
2022-09-16T19:39:04.914Z,1.23
2022-09-16T19:41:32.807Z,1.60
2022-09-16T19:44:01.334Z,1.60
2022-09-16T19:46:31.749Z,1.40
2022-09-16T19:48:58.524Z,0.98
2022-09-16T19:51:26.197Z,1.00
2022-09-16T19:53:53.954Z,0.90
2022-09-16T19:56:22.808Z,1.15
2022-09-16T19:58:51.168Z,0.82
2022-09-16T20:01:24.393Z,1.10
2022-09-16T20:03:51.276Z,1.00
2022-09-16T20:06:23.416Z,1.30
2022-09-16T20:08:54.129Z,1.00
2022-09-16T20:11:23.118Z,1.08
2022-09-16T20:13:56.821Z,0.80
2022-09-16T20:18:51.297Z,0.90
2022-09-16T20:21:20.383Z,1.15
2022-09-16T20:23:47.951Z,1.00
2022-09-16T20:26:19.607Z,1.10
2022-09-16T20:28:54.551Z,1.00
2022-09-16T20:31:33.140Z,1.05
2022-09-16T20:34:00.346Z,1.17
2022-09-16T20:36:30.522Z,1.05
2022-09-16T20:38:59.715Z,1.10
2022-09-16T20:41:28.931Z,0.82
2022-09-16T20:43:56.003Z,0.95
2022-09-16T20:46:25.260Z,1.35
2022-09-16T20:48:54.462Z,0.90
2022-09-16T20:51:23.530Z,1.10
2022-09-16T20:54:08.451Z,1.20
2022-09-16T20:56:39.773Z,1.20
2022-09-16T20:59:08.265Z,1.20
2022-09-16T21:01:36.055Z,1.05
2022-09-16T21:04:07.310Z,1.10
2022-09-16T21:06:35.672Z,0.90
2022-09-16T21:09:05.407Z,0.95
2022-09-16T21:11:33.148Z,1.20
2022-09-16T21:14:06.616Z,1.10
2022-09-16T21:16:35.007Z,0.98
2022-09-16T21:19:03.968Z,1.00
2022-09-16T21:21:31.139Z,1.25
2022-09-16T21:23:59.071Z,1.73
2022-09-16T21:26:33.552Z,1.08
2022-09-16T21:29:02.168Z,1.40
2022-09-16T21:31:33.270Z,0.98
2022-09-16T21:34:01.683Z,1.65
2022-09-16T21:36:28.435Z,1.10
2022-09-16T21:38:55.521Z,0.80
2022-09-16T21:41:23.087Z,1.20
2022-09-16T21:43:52.023Z,1.13
2022-09-16T21:46:21.277Z,1.60
2022-09-16T21:48:51.722Z,1.17
2022-09-16T21:51:19.773Z,1.13
2022-09-16T21:53:47.463Z,0.95
2022-09-16T21:56:21.839Z,1.20
2022-09-16T21:58:50.416Z,1.52
2022-09-16T22:01:25.079Z,1.13
2022-09-16T22:03:59.839Z,1.05
2022-09-16T22:06:27.241Z,1.08
2022-09-16T22:08:55.537Z,1.20
2022-09-16T22:11:24.632Z,1.48
2022-09-16T22:13:51.323Z,1.05
2022-09-16T22:16:27.319Z,1.10
2022-09-16T22:18:55.442Z,1.17
2022-09-16T22:21:22.655Z,1.33
2022-09-16T22:23:49.353Z,1.10
2022-09-16T22:26:18.886Z,1.40
2022-09-16T22:28:45.951Z,1.60
2022-09-16T22:31:27.085Z,1.52
2022-09-16T22:33:54.919Z,1.45
2022-09-16T22:36:25.232Z,1.38
2022-09-16T22:38:57.024Z,1.35
2022-09-16T22:41:28.469Z,1.27
2022-09-16T22:43:55.344Z,1.40
2022-09-16T22:46:24.987Z,2.00
2022-09-16T22:48:52.429Z,1.50
2022-09-16T22:51:20.551Z,1.23
2022-09-16T22:53:48.379Z,1.40
2022-09-16T22:56:20.212Z,2.00
2022-09-16T22:58:51.974Z,1.83
2022-09-16T23:01:21.212Z,1.60
2022-09-16T23:03:53.199Z,1.70
2022-09-16T23:06:20.605Z,1.38
2022-09-16T23:08:47.508Z,1.73
2022-09-16T23:11:16.989Z,2.00
2022-09-16T23:13:45.202Z,2.13
2022-09-16T23:16:17.284Z,2.00
2022-09-16T23:18:45.140Z,2.00
2022-09-16T23:21:14.166Z,1.85
2022-09-16T23:23:43.185Z,1.67
2022-09-16T23:26:31.588Z,1.65
2022-09-16T23:28:59.565Z,1.70
2022-09-16T23:31:29.834Z,1.92
2022-09-16T23:33:57.120Z,2.10
2022-09-16T23:36:25.718Z,2.17
2022-09-16T23:38:52.901Z,2.35
2022-09-16T23:41:26.580Z,2.47
2022-09-16T23:46:21.030Z,2.30
2022-09-16T23:48:47.928Z,2.35
2022-09-16T23:51:14.337Z,2.75
2022-09-16T23:53:42.408Z,2.10
2022-09-16T23:56:11.077Z,2.40
2022-09-16T23:58:37.870Z,2.65
